createdAt,value
2023-02-13T00:00:55.553Z,984.08
2023-02-13T00:01:54.868Z,984.05
2023-02-13T00:02:54.898Z,984.08
2023-02-13T00:03:54.956Z,984.01
2023-02-13T00:04:54.825Z,984.06
2023-02-13T00:05:54.816Z,984.01
2023-02-13T00:06:54.840Z,984.04
2023-02-13T00:07:54.807Z,984.00
2023-02-13T00:08:54.822Z,983.99
2023-02-13T00:09:54.771Z,984.02
2023-02-13T00:10:55.165Z,983.99
2023-02-13T00:11:54.758Z,983.94
2023-02-13T00:12:54.738Z,983.95
2023-02-13T00:13:54.769Z,983.98
2023-02-13T00:14:54.717Z,983.95
2023-02-13T00:15:54.874Z,983.94
2023-02-13T00:16:54.716Z,983.90
2023-02-13T00:17:54.704Z,983.96
2023-02-13T00:18:54.686Z,983.96
2023-02-13T00:19:54.679Z,983.93
2023-02-13T00:20:54.984Z,983.95
2023-02-13T00:21:54.718Z,983.98
2023-02-13T00:22:54.627Z,983.98
2023-02-13T00:23:54.656Z,984.00
2023-02-13T00:24:54.619Z,983.94
2023-02-13T00:25:54.614Z,983.95
2023-02-13T00:26:54.610Z,983.93
2023-02-13T00:27:54.625Z,983.92
2023-02-13T00:28:54.565Z,983.92
2023-02-13T00:29:54.582Z,983.94
2023-02-13T00:30:54.716Z,983.95
2023-02-13T00:31:54.710Z,983.91
2023-02-13T00:32:54.530Z,983.96
2023-02-13T00:33:54.512Z,983.94
2023-02-13T00:34:54.498Z,983.96
2023-02-13T00:35:54.479Z,983.92
2023-02-13T00:36:54.486Z,983.97
2023-02-13T00:37:54.495Z,983.95
2023-02-13T00:38:55.430Z,983.92
2023-02-13T00:39:54.428Z,983.97
2023-02-13T00:40:54.473Z,983.92
2023-02-13T00:41:54.418Z,983.97
2023-02-13T00:42:54.445Z,983.94
2023-02-13T00:43:54.432Z,983.88
2023-02-13T00:44:54.397Z,983.87
2023-02-13T00:45:54.366Z,983.84
2023-02-13T00:46:54.373Z,983.86
2023-02-13T00:47:54.388Z,983.86
2023-02-13T00:48:54.330Z,983.82
2023-02-13T00:49:54.315Z,983.85
2023-02-13T00:50:54.303Z,983.84
2023-02-13T00:51:54.304Z,983.81
2023-02-13T00:52:54.341Z,983.87
2023-02-13T00:53:54.293Z,983.90
2023-02-13T00:54:54.262Z,983.83
2023-02-13T00:55:54.246Z,983.86
2023-02-13T00:56:54.320Z,983.81
2023-02-13T00:57:54.227Z,983.84
2023-02-13T00:58:54.255Z,983.80
2023-02-13T00:59:54.220Z,983.79
2023-02-13T01:00:54.193Z,983.82
2023-02-13T01:01:54.228Z,983.84
2023-02-13T01:02:54.204Z,983.86
2023-02-13T01:03:54.365Z,983.86
2023-02-13T01:04:54.185Z,983.86
2023-02-13T01:05:54.147Z,983.84
2023-02-13T01:06:54.172Z,983.83
2023-02-13T01:07:54.114Z,983.80
2023-02-13T01:08:54.115Z,983.87
2023-02-13T01:09:54.099Z,983.88
2023-02-13T01:10:54.130Z,983.84
2023-02-13T01:11:54.114Z,983.82
2023-02-13T01:12:54.079Z,983.83
2023-02-13T01:13:54.049Z,983.85
2023-02-13T01:14:54.086Z,983.84
2023-02-13T01:15:54.106Z,983.89
2023-02-13T01:16:54.052Z,983.82
2023-02-13T01:17:54.004Z,983.82
2023-02-13T01:18:53.990Z,983.79
2023-02-13T01:19:54.018Z,983.85
2023-02-13T01:20:53.969Z,983.82
2023-02-13T01:21:53.978Z,983.80
2023-02-13T01:22:54.003Z,983.80
2023-02-13T01:23:53.939Z,983.77
2023-02-13T01:24:53.951Z,983.78
2023-02-13T01:25:53.930Z,983.79
2023-02-13T01:26:53.920Z,983.84
2023-02-13T01:27:53.917Z,983.78
2023-02-13T01:28:53.885Z,983.81
2023-02-13T01:29:53.894Z,983.77
2023-02-13T01:30:53.957Z,983.83
2023-02-13T01:31:53.964Z,983.78
2023-02-13T01:32:53.884Z,983.83
2023-02-13T01:33:53.828Z,983.84
2023-02-13T01:34:53.869Z,983.82
2023-02-13T01:35:53.801Z,983.80
2023-02-13T01:36:53.836Z,983.79
2023-02-13T01:37:53.777Z,983.85
2023-02-13T01:38:53.788Z,983.80
2023-02-13T01:39:53.798Z,983.79
2023-02-13T01:40:53.799Z,983.81
2023-02-13T01:41:53.742Z,983.78
2023-02-13T01:42:53.743Z,983.79
2023-02-13T01:43:53.724Z,983.81
2023-02-13T01:44:53.746Z,983.82
2023-02-13T01:45:53.692Z,983.79
2023-02-13T01:46:53.751Z,983.78
2023-02-13T01:47:53.664Z,983.78
2023-02-13T01:48:53.687Z,983.74
2023-02-13T01:49:53.690Z,983.76
2023-02-13T01:50:53.657Z,983.75
2023-02-13T01:51:53.674Z,983.76
2023-02-13T01:52:53.605Z,983.78
2023-02-13T01:53:53.613Z,983.76
2023-02-13T01:54:53.646Z,983.76
2023-02-13T01:55:53.620Z,983.78
2023-02-13T01:56:53.653Z,983.77
2023-02-13T01:57:53.550Z,983.80
2023-02-13T01:58:53.545Z,983.79
2023-02-13T01:59:53.538Z,983.78
2023-02-13T02:00:53.561Z,983.77
2023-02-13T02:01:53.692Z,983.78
2023-02-13T02:02:53.546Z,983.79
2023-02-13T02:03:53.481Z,983.74
2023-02-13T02:04:53.470Z,983.85
2023-02-13T02:05:53.474Z,983.78
2023-02-13T02:06:53.486Z,983.83
2023-02-13T02:07:53.464Z,983.80
2023-02-13T02:08:53.469Z,983.80
2023-02-13T02:09:53.413Z,983.84
2023-02-13T02:10:53.413Z,983.79
2023-02-13T02:11:53.427Z,983.81
2023-02-13T02:12:53.420Z,983.83
2023-02-13T02:13:53.406Z,983.82
2023-02-13T02:14:53.360Z,983.76
2023-02-13T02:15:53.373Z,983.81
2023-02-13T02:16:53.348Z,983.78
2023-02-13T02:17:53.345Z,983.81
2023-02-13T02:18:53.364Z,983.84
2023-02-13T02:19:53.346Z,983.85
2023-02-13T02:20:53.341Z,983.85
2023-02-13T02:21:53.285Z,983.84
2023-02-13T02:22:53.311Z,983.84
2023-02-13T02:23:53.274Z,983.82
2023-02-13T02:24:53.279Z,983.83
2023-02-13T02:25:53.284Z,983.80
2023-02-13T02:26:53.233Z,983.84
2023-02-13T02:27:53.249Z,983.82
2023-02-13T02:28:53.227Z,983.76
2023-02-13T02:29:53.221Z,983.75
2023-02-13T02:30:53.312Z,983.80
2023-02-13T02:31:53.246Z,983.76
2023-02-13T02:32:53.162Z,983.81
2023-02-13T02:33:53.158Z,983.78
2023-02-13T02:34:53.169Z,983.77
2023-02-13T02:35:53.150Z,983.83
2023-02-13T02:36:53.161Z,983.81
2023-02-13T02:37:53.106Z,983.84
2023-02-13T02:38:53.096Z,983.85
2023-02-13T02:39:53.085Z,983.86
2023-02-13T02:40:53.108Z,983.80
2023-02-13T02:41:53.079Z,983.82
2023-02-13T02:42:53.099Z,983.82
2023-02-13T02:43:53.040Z,983.84
2023-02-13T02:44:53.031Z,983.80
2023-02-13T02:45:53.058Z,983.82
2023-02-13T02:46:53.056Z,983.85
2023-02-13T02:47:53.052Z,983.75
2023-02-13T02:48:52.980Z,983.76
2023-02-13T02:49:52.966Z,983.75
2023-02-13T02:50:53.000Z,983.79
2023-02-13T02:51:52.951Z,983.71
2023-02-13T02:52:52.959Z,983.78
2023-02-13T02:53:52.987Z,983.75
2023-02-13T02:54:52.939Z,983.77
2023-02-13T02:55:52.923Z,983.76
2023-02-13T02:56:52.887Z,983.70
2023-02-13T02:57:52.917Z,983.76
2023-02-13T02:58:52.896Z,983.72
2023-02-13T02:59:52.888Z,983.72
2023-02-13T03:00:52.954Z,983.72
2023-02-13T03:01:52.840Z,983.73
2023-02-13T03:02:52.877Z,983.66
2023-02-13T03:03:52.893Z,983.67
2023-02-13T03:04:52.801Z,983.76
2023-02-13T03:05:52.882Z,983.72
2023-02-13T03:06:52.805Z,983.73
2023-02-13T03:07:52.781Z,983.73
2023-02-13T03:08:52.793Z,983.69
2023-02-13T03:09:52.765Z,983.71
2023-02-13T03:10:52.736Z,983.71
2023-02-13T03:11:52.717Z,983.67
2023-02-13T03:12:52.724Z,983.72
2023-02-13T03:13:52.693Z,983.74
2023-02-13T03:14:52.727Z,983.71
2023-02-13T03:15:52.700Z,983.69
2023-02-13T03:16:52.701Z,983.69
2023-02-13T03:17:52.671Z,983.73
2023-02-13T03:18:52.669Z,983.69
2023-02-13T03:19:52.675Z,983.71
2023-02-13T03:20:52.633Z,983.71
2023-02-13T03:21:52.604Z,983.72
2023-02-13T03:22:52.627Z,983.76
2023-02-13T03:23:52.592Z,983.74
2023-02-13T03:24:52.613Z,983.71
2023-02-13T03:25:52.597Z,983.77
2023-02-13T03:26:52.570Z,983.76
2023-02-13T03:27:52.577Z,983.80
2023-02-13T03:28:52.526Z,983.76
2023-02-13T03:29:52.515Z,983.75
2023-02-13T03:30:52.601Z,983.76
2023-02-13T03:32:00.998Z,983.84
2023-02-13T03:32:52.506Z,983.84
2023-02-13T03:33:52.470Z,983.80
2023-02-13T03:34:52.463Z,983.83
2023-02-13T03:35:52.451Z,983.76
2023-02-13T03:36:52.473Z,983.80
2023-02-13T03:37:52.447Z,983.81
2023-02-13T03:38:52.475Z,983.78
2023-02-13T03:39:52.402Z,983.79
2023-02-13T03:40:52.391Z,983.74
2023-02-13T03:41:52.537Z,983.72
2023-02-13T03:42:52.384Z,983.74
2023-02-13T03:43:52.378Z,983.73
2023-02-13T03:44:52.352Z,983.69
2023-02-13T03:45:52.434Z,983.68
2023-02-13T03:46:52.324Z,983.69
2023-02-13T03:47:52.409Z,983.68
2023-02-13T03:48:52.318Z,983.71
2023-02-13T03:49:52.328Z,983.69
2023-02-13T03:50:52.280Z,983.72
2023-02-13T03:51:52.289Z,983.68
2023-02-13T03:52:52.351Z,983.62
2023-02-13T03:53:52.271Z,983.65
2023-02-13T03:54:52.305Z,983.64
2023-02-13T03:55:52.260Z,983.63
2023-02-13T03:56:52.211Z,983.67
2023-02-13T03:57:52.204Z,983.63
2023-02-13T03:58:52.227Z,983.65
2023-02-13T03:59:52.216Z,983.65
2023-02-13T04:00:52.209Z,983.64
2023-02-13T04:01:52.255Z,983.67
2023-02-13T04:02:52.166Z,983.66
2023-02-13T04:03:52.132Z,983.67
2023-02-13T04:04:52.158Z,983.66
2023-02-13T04:05:52.120Z,983.65
2023-02-13T04:06:52.125Z,983.69
2023-02-13T04:07:52.122Z,983.69
2023-02-13T04:08:52.118Z,983.68
2023-02-13T04:09:52.089Z,983.70
2023-02-13T04:10:52.091Z,983.68
2023-02-13T04:11:52.092Z,983.71
2023-02-13T04:12:52.042Z,983.73
2023-02-13T04:13:52.088Z,983.78
2023-02-13T04:14:52.010Z,983.77
2023-02-13T04:15:52.028Z,983.76
2023-02-13T04:16:52.020Z,983.79
2023-02-13T04:17:52.002Z,983.70
2023-02-13T04:18:51.994Z,983.75
2023-02-13T04:19:52.014Z,983.75
2023-02-13T04:20:51.989Z,983.78
2023-02-13T04:21:51.933Z,983.76
2023-02-13T04:22:52.066Z,983.76
2023-02-13T04:23:51.915Z,983.78
2023-02-13T04:24:51.899Z,983.80
2023-02-13T04:25:51.896Z,983.85
2023-02-13T04:26:51.901Z,983.84
2023-02-13T04:27:51.917Z,983.84
2023-02-13T04:28:51.857Z,983.85
2023-02-13T04:29:51.886Z,983.85
2023-02-13T04:30:52.014Z,983.89
2023-02-13T04:31:52.102Z,983.83
2023-02-13T04:32:51.869Z,983.84
2023-02-13T04:33:51.800Z,983.89
2023-02-13T04:34:51.838Z,983.91
2023-02-13T04:35:51.778Z,983.89
2023-02-13T04:36:51.902Z,983.82
2023-02-13T04:37:51.774Z,983.85
2023-02-13T04:38:51.747Z,983.90
2023-02-13T04:39:51.738Z,983.91
2023-02-13T04:40:51.756Z,983.91
2023-02-13T04:41:51.757Z,983.90
2023-02-13T04:42:51.719Z,983.92
2023-02-13T04:43:51.691Z,983.82
2023-02-13T04:44:51.702Z,983.93
2023-02-13T04:45:51.747Z,983.98
2023-02-13T04:46:51.672Z,983.92
2023-02-13T04:47:51.675Z,983.97
2023-02-13T04:48:51.633Z,983.93
2023-02-13T04:49:51.652Z,983.92
2023-02-13T04:50:51.632Z,983.94
2023-02-13T04:51:51.663Z,983.97
2023-02-13T04:52:51.610Z,983.94
2023-02-13T04:53:51.578Z,983.95
2023-02-13T04:54:51.570Z,983.98
2023-02-13T04:55:51.556Z,983.95
2023-02-13T04:56:51.582Z,984.00
2023-02-13T04:57:51.585Z,983.93
2023-02-13T04:58:51.546Z,983.99
2023-02-13T04:59:51.508Z,983.99
2023-02-13T05:00:51.523Z,983.98
2023-02-13T05:01:51.528Z,984.02
2023-02-13T05:02:51.497Z,983.99
2023-02-13T05:03:51.514Z,984.02
2023-02-13T05:04:51.549Z,984.04
2023-02-13T05:05:51.451Z,984.06
2023-02-13T05:06:51.449Z,984.06
2023-02-13T05:07:51.456Z,984.03
2023-02-13T05:08:51.430Z,984.05
2023-02-13T05:09:51.429Z,984.00
2023-02-13T05:10:51.388Z,983.97
2023-02-13T05:11:51.374Z,984.01
2023-02-13T05:12:51.430Z,984.02
2023-02-13T05:13:51.392Z,984.00
2023-02-13T05:14:51.384Z,983.99
2023-02-13T05:15:51.390Z,984.00
2023-02-13T05:16:51.358Z,984.06
2023-02-13T05:17:51.307Z,984.05
2023-02-13T05:18:51.334Z,984.04
2023-02-13T05:19:51.290Z,984.05
2023-02-13T05:20:51.308Z,984.06
2023-02-13T05:21:51.265Z,984.08
2023-02-13T05:22:51.295Z,984.10
2023-02-13T05:23:51.241Z,984.12
2023-02-13T05:24:51.243Z,984.09
2023-02-13T05:25:51.243Z,984.09
2023-02-13T05:26:51.234Z,984.06
2023-02-13T05:27:51.238Z,984.04
2023-02-13T05:28:51.192Z,984.05
2023-02-13T05:29:51.174Z,984.05
2023-02-13T05:30:51.216Z,984.04
2023-02-13T05:31:51.295Z,984.08
2023-02-13T05:32:51.170Z,984.06
2023-02-13T05:33:51.128Z,984.05
2023-02-13T05:34:51.141Z,984.07
2023-02-13T05:35:51.109Z,984.03
2023-02-13T05:36:51.238Z,984.08
2023-02-13T05:37:51.115Z,984.04
2023-02-13T05:38:51.077Z,984.04
2023-02-13T05:39:51.064Z,984.00
2023-02-13T05:40:51.052Z,984.02
2023-02-13T05:41:51.562Z,984.00
2023-02-13T05:42:51.078Z,983.98
2023-02-13T05:43:51.044Z,983.97
2023-02-13T05:44:51.171Z,983.99
2023-02-13T05:45:51.004Z,983.95
2023-02-13T05:46:51.009Z,983.92
2023-02-13T05:47:50.990Z,983.97
2023-02-13T05:48:50.995Z,983.90
2023-02-13T05:49:50.967Z,983.93
2023-02-13T05:50:50.974Z,983.94
2023-02-13T05:51:50.933Z,983.88
2023-02-13T05:52:50.957Z,983.94
2023-02-13T05:53:50.915Z,983.93
2023-02-13T05:54:50.982Z,983.95
2023-02-13T05:55:50.906Z,983.99
2023-02-13T05:56:50.932Z,984.09
2023-02-13T05:57:50.865Z,984.07
2023-02-13T05:58:50.852Z,984.07
2023-02-13T05:59:50.854Z,984.06
2023-02-13T06:00:50.895Z,984.11
2023-02-13T06:01:50.817Z,984.08
2023-02-13T06:02:50.877Z,984.10
2023-02-13T06:03:50.895Z,984.09
2023-02-13T06:04:50.784Z,984.12
2023-02-13T06:05:50.786Z,984.17
2023-02-13T06:06:50.797Z,984.14
2023-02-13T06:07:50.804Z,984.22
2023-02-13T06:08:50.743Z,984.21
2023-02-13T06:09:50.726Z,984.20
2023-02-13T06:10:50.746Z,984.16
2023-02-13T06:11:50.723Z,984.17
2023-02-13T06:12:50.748Z,984.20
2023-02-13T06:13:50.748Z,984.20
2023-02-13T06:14:50.669Z,984.17
2023-02-13T06:15:50.773Z,984.22
2023-02-13T06:16:50.655Z,984.24
2023-02-13T06:17:50.663Z,984.20
2023-02-13T06:18:50.650Z,984.23
2023-02-13T06:19:50.694Z,984.21
2023-02-13T06:20:50.624Z,984.22
2023-02-13T06:21:50.602Z,984.21
2023-02-13T06:22:50.632Z,984.26
2023-02-13T06:23:50.601Z,984.24
2023-02-13T06:24:50.607Z,984.25
2023-02-13T06:25:50.625Z,984.32
2023-02-13T06:26:50.559Z,984.33
2023-02-13T06:27:50.536Z,984.34
2023-02-13T06:28:50.533Z,984.30
2023-02-13T06:29:50.511Z,984.31
2023-02-13T06:30:50.669Z,984.30
2023-02-13T06:31:50.562Z,984.32
2023-02-13T06:32:50.479Z,984.34
2023-02-13T06:33:50.482Z,984.36
2023-02-13T06:34:50.492Z,984.39
2023-02-13T06:35:50.462Z,984.36
2023-02-13T06:36:50.467Z,984.42
2023-02-13T06:37:50.586Z,984.41
2023-02-13T06:38:50.409Z,984.43
2023-02-13T06:39:50.441Z,984.44
2023-02-13T06:40:50.398Z,984.42
2023-02-13T06:41:50.416Z,984.39
2023-02-13T06:42:50.423Z,984.43
2023-02-13T06:43:50.365Z,984.46
2023-02-13T06:44:50.348Z,984.45
2023-02-13T06:45:50.373Z,984.43
2023-02-13T06:46:50.403Z,984.48
2023-02-13T06:47:50.352Z,984.49
2023-02-13T06:48:50.292Z,984.53
2023-02-13T06:49:50.314Z,984.48
2023-02-13T06:50:50.307Z,984.52
2023-02-13T06:51:50.296Z,984.46
2023-02-13T06:52:50.289Z,984.46
2023-02-13T06:53:50.242Z,984.51
2023-02-13T06:54:50.249Z,984.48
2023-02-13T06:55:50.237Z,984.50
2023-02-13T06:56:50.220Z,984.49
2023-02-13T06:57:50.226Z,984.55
2023-02-13T06:58:50.198Z,984.55
2023-02-13T06:59:50.213Z,984.64
2023-02-13T07:00:50.198Z,984.55
2023-02-13T07:01:50.171Z,984.61
2023-02-13T07:02:50.227Z,984.65
2023-02-13T07:03:50.145Z,984.59
2023-02-13T07:04:50.166Z,984.66
2023-02-13T07:05:50.106Z,984.69
2023-02-13T07:06:50.139Z,984.71
2023-02-13T07:07:50.161Z,984.73
2023-02-13T07:08:50.084Z,984.77
2023-02-13T07:09:50.074Z,984.76
2023-02-13T07:10:50.049Z,984.77
2023-02-13T07:11:51.552Z,984.83
2023-02-13T07:13:03.647Z,984.81
2023-02-13T07:13:51.048Z,984.82
2023-02-13T07:14:50.044Z,984.84
2023-02-13T07:15:50.060Z,984.82
2023-02-13T07:16:49.985Z,984.78
2023-02-13T07:17:49.995Z,984.88
2023-02-13T07:18:49.963Z,984.90
2023-02-13T07:19:49.970Z,984.96
2023-02-13T07:20:49.987Z,984.92
2023-02-13T07:21:49.955Z,984.94
2023-02-13T07:22:49.968Z,984.91
2023-02-13T07:23:49.919Z,984.95
2023-02-13T07:24:49.905Z,984.97
2023-02-13T07:25:49.919Z,984.92
2023-02-13T07:26:49.884Z,985.01
2023-02-13T07:27:49.871Z,984.96
2023-02-13T07:28:52.926Z,984.98
2023-02-13T07:29:50.857Z,984.95
2023-02-13T07:30:49.887Z,984.99
2023-02-13T07:31:49.909Z,985.01
2023-02-13T07:32:49.833Z,984.93
2023-02-13T07:33:49.800Z,984.95
2023-02-13T07:35:01.342Z,984.97
2023-02-13T07:35:50.822Z,984.90
2023-02-13T07:36:49.808Z,984.98
2023-02-13T07:37:49.782Z,984.93
2023-02-13T07:38:49.784Z,984.97
2023-02-13T07:39:49.734Z,984.93
2023-02-13T07:40:49.755Z,984.99
2023-02-13T07:41:49.712Z,984.98
2023-02-13T07:42:49.727Z,984.97
2023-02-13T07:43:49.722Z,984.93
2023-02-13T07:44:49.678Z,984.97
2023-02-13T07:45:49.710Z,985.01
2023-02-13T07:46:49.699Z,984.93
2023-02-13T07:47:49.652Z,984.91
2023-02-13T07:48:49.657Z,984.99
2023-02-13T07:49:49.664Z,984.91
2023-02-13T07:50:49.613Z,985.01
2023-02-13T07:51:49.625Z,984.99
2023-02-13T07:52:49.599Z,985.02
2023-02-13T07:53:49.593Z,985.04
2023-02-13T07:54:49.608Z,985.04
2023-02-13T07:55:49.589Z,985.03
2023-02-13T07:56:49.545Z,985.01
2023-02-13T07:57:49.560Z,985.06
2023-02-13T07:58:49.533Z,985.06
2023-02-13T07:59:49.524Z,984.95
2023-02-13T08:00:49.527Z,984.99
2023-02-13T08:01:49.571Z,985.02
2023-02-13T08:02:49.533Z,984.99
2023-02-13T08:03:49.511Z,985.01
2023-02-13T08:04:49.472Z,984.97
2023-02-13T08:05:49.462Z,985.04
2023-02-13T08:06:49.466Z,984.98
2023-02-13T08:07:49.430Z,984.98
2023-02-13T08:08:49.460Z,985.01
2023-02-13T08:09:49.400Z,984.98
2023-02-13T08:10:49.460Z,984.99
2023-02-13T08:11:49.384Z,984.99
2023-02-13T08:12:49.418Z,984.96
2023-02-13T08:13:49.351Z,985.02
2023-02-13T08:14:49.339Z,984.93
2023-02-13T08:15:49.330Z,984.95
2023-02-13T08:16:49.485Z,984.96
2023-02-13T08:17:49.324Z,984.96
2023-02-13T08:18:49.343Z,984.98
2023-02-13T08:19:49.285Z,984.98
2023-02-13T08:20:49.270Z,984.96
2023-02-13T08:21:49.264Z,984.98
2023-02-13T08:22:49.284Z,985.00
2023-02-13T08:23:49.285Z,984.99
2023-02-13T08:24:49.261Z,984.99
2023-02-13T08:25:49.215Z,985.00
2023-02-13T08:26:49.257Z,985.00
2023-02-13T08:27:49.228Z,985.01
2023-02-13T08:28:49.188Z,985.03
2023-02-13T08:29:49.195Z,985.00
2023-02-13T08:30:49.232Z,984.98
2023-02-13T08:31:49.209Z,984.98
2023-02-13T08:32:54.183Z,984.99
2023-02-13T08:33:50.138Z,984.93
2023-02-13T08:34:49.126Z,984.94
2023-02-13T08:35:49.133Z,984.94
2023-02-13T08:36:49.090Z,984.89
2023-02-13T08:37:49.129Z,984.97
2023-02-13T08:38:49.072Z,984.96
2023-02-13T08:39:49.055Z,984.92
2023-02-13T08:40:49.065Z,984.95
2023-02-13T08:41:49.032Z,984.98
2023-02-13T08:42:49.043Z,984.96
2023-02-13T08:43:49.041Z,985.01
2023-02-13T08:44:49.029Z,984.98
2023-02-13T08:45:49.052Z,984.95
2023-02-13T08:46:48.991Z,985.00
2023-02-13T08:47:48.964Z,984.96
2023-02-13T08:48:48.953Z,984.98
2023-02-13T08:49:48.971Z,985.00
2023-02-13T08:50:48.950Z,985.01
2023-02-13T08:51:48.966Z,985.02
2023-02-13T08:52:48.935Z,985.04
2023-02-13T08:53:48.945Z,985.05
2023-02-13T08:54:48.886Z,985.01
2023-02-13T08:55:48.896Z,985.00
2023-02-13T08:56:48.878Z,985.06
2023-02-13T08:57:48.875Z,985.02
2023-02-13T08:58:48.898Z,985.03
2023-02-13T08:59:48.886Z,985.05
2023-02-13T09:00:48.935Z,985.06
2023-02-13T09:01:48.823Z,985.07
2023-02-13T09:02:48.889Z,985.06
2023-02-13T09:03:48.798Z,985.07
2023-02-13T09:04:48.824Z,985.07
2023-02-13T09:05:48.787Z,985.08
2023-02-13T09:06:48.754Z,985.11
2023-02-13T09:07:48.769Z,985.05
2023-02-13T09:08:48.783Z,985.06
2023-02-13T09:09:48.744Z,985.04
2023-02-13T09:10:48.745Z,985.08
2023-02-13T09:11:48.697Z,985.06
2023-02-13T09:12:48.687Z,985.10
2023-02-13T09:13:48.709Z,985.09
2023-02-13T09:14:48.707Z,985.15
2023-02-13T09:15:48.678Z,985.14
2023-02-13T09:16:48.740Z,985.18
2023-02-13T09:17:48.631Z,985.14
2023-02-13T09:18:48.683Z,985.15
2023-02-13T09:19:48.615Z,985.15
2023-02-13T09:20:48.626Z,985.22
2023-02-13T09:21:48.588Z,985.19
2023-02-13T09:22:48.578Z,985.18
2023-02-13T09:23:48.566Z,985.20
2023-02-13T09:24:48.577Z,985.15
2023-02-13T09:25:48.555Z,985.15
2023-02-13T09:26:48.585Z,985.14
2023-02-13T09:27:48.566Z,985.15
2023-02-13T09:28:48.683Z,985.19
2023-02-13T09:29:48.501Z,985.19
2023-02-13T09:30:48.560Z,985.22
2023-02-13T09:31:48.596Z,985.19
2023-02-13T09:32:48.536Z,985.22
2023-02-13T09:33:48.458Z,985.19
2023-02-13T09:34:48.444Z,985.19
2023-02-13T09:35:48.441Z,985.24
2023-02-13T09:36:48.427Z,985.23
2023-02-13T09:37:48.428Z,985.23
2023-02-13T09:38:48.471Z,985.26
2023-02-13T09:39:48.411Z,985.28
2023-02-13T09:40:48.377Z,985.26
2023-02-13T09:41:48.381Z,985.29
2023-02-13T09:42:48.386Z,985.28
2023-02-13T09:43:48.360Z,985.33
2023-02-13T09:44:48.332Z,985.30
2023-02-13T09:45:48.402Z,985.26
2023-02-13T09:46:48.404Z,985.28
2023-02-13T09:47:48.338Z,985.32
2023-02-13T09:48:48.308Z,985.27
2023-02-13T09:49:48.304Z,985.29
2023-02-13T09:50:48.265Z,985.23
2023-02-13T09:51:48.277Z,985.25
2023-02-13T09:52:48.250Z,985.22
2023-02-13T09:53:48.265Z,985.26
2023-02-13T09:54:48.228Z,985.28
2023-02-13T09:55:48.249Z,985.27
2023-02-13T09:56:48.196Z,985.23
2023-02-13T09:57:48.184Z,985.25
2023-02-13T09:58:48.214Z,985.19
2023-02-13T09:59:48.197Z,985.26
2023-02-13T10:00:50.608Z,985.28
2023-02-13T10:01:48.214Z,985.29
2023-02-13T10:02:48.151Z,985.29
2023-02-13T10:03:48.156Z,985.28
2023-02-13T10:04:48.163Z,985.33
2023-02-13T10:05:48.136Z,985.37
2023-02-13T10:06:48.100Z,985.32
2023-02-13T10:07:48.129Z,985.37
2023-02-13T10:08:48.072Z,985.29
2023-02-13T10:09:48.061Z,985.26
2023-02-13T10:10:48.057Z,985.25
2023-02-13T10:11:48.032Z,985.27
2023-02-13T10:12:48.018Z,985.31
2023-02-13T10:13:48.068Z,985.26
2023-02-13T10:14:47.994Z,985.28
2023-02-13T10:15:48.132Z,985.28
2023-02-13T10:16:48.005Z,985.25
2023-02-13T10:17:47.986Z,985.26
2023-02-13T10:18:47.978Z,985.31
2023-02-13T10:19:47.961Z,985.29
2023-02-13T10:20:47.965Z,985.22
2023-02-13T10:21:47.925Z,985.30
2023-02-13T10:22:47.925Z,985.23
2023-02-13T10:23:47.914Z,985.23
2023-02-13T10:24:47.891Z,985.24
2023-02-13T10:25:47.888Z,985.22
2023-02-13T10:26:47.903Z,985.20
2023-02-13T10:27:47.850Z,985.22
2023-02-13T10:28:47.850Z,985.26
2023-02-13T10:29:47.823Z,985.22
2023-02-13T10:30:47.993Z,985.24
2023-02-13T10:31:48.034Z,985.23
2023-02-13T10:32:47.813Z,985.24
2023-02-13T10:33:47.788Z,985.19
2023-02-13T10:34:47.824Z,985.21
2023-02-13T10:35:47.795Z,985.19
2023-02-13T10:36:47.772Z,985.15
2023-02-13T10:37:47.754Z,985.17
2023-02-13T10:38:47.748Z,985.16
2023-02-13T10:39:47.727Z,985.14
2023-02-13T10:40:47.734Z,985.08
2023-02-13T10:41:47.692Z,985.08
2023-02-13T10:42:47.689Z,985.11
2023-02-13T10:43:47.704Z,985.10
2023-02-13T10:44:47.670Z,985.15
2023-02-13T10:45:47.675Z,985.11
2023-02-13T10:46:47.782Z,985.07
2023-02-13T10:47:47.622Z,985.08
2023-02-13T10:48:47.618Z,985.05
2023-02-13T10:49:47.634Z,985.12
2023-02-13T10:50:47.618Z,985.09
2023-02-13T10:51:47.635Z,985.05
2023-02-13T10:52:47.614Z,985.04
2023-02-13T10:53:47.556Z,985.05
2023-02-13T10:54:47.557Z,984.98
2023-02-13T10:55:47.562Z,984.99
2023-02-13T10:56:47.574Z,984.98
2023-02-13T10:57:47.527Z,984.96
2023-02-13T10:58:47.516Z,984.90
2023-02-13T10:59:47.487Z,984.94
2023-02-13T11:00:47.494Z,984.93
2023-02-13T11:01:47.582Z,984.90
2023-02-13T11:02:47.509Z,984.85
2023-02-13T11:03:47.445Z,984.88
2023-02-13T11:04:47.442Z,984.88
2023-02-13T11:05:47.418Z,984.90
2023-02-13T11:06:47.448Z,984.88
2023-02-13T11:07:47.496Z,984.90
2023-02-13T11:08:47.437Z,984.89
2023-02-13T11:09:47.375Z,984.88
2023-02-13T11:10:47.371Z,984.92
2023-02-13T11:11:47.417Z,984.91
2023-02-13T11:12:47.375Z,984.88
2023-02-13T11:13:47.376Z,984.88
2023-02-13T11:14:47.384Z,984.88
2023-02-13T11:15:47.333Z,984.89
2023-02-13T11:16:47.293Z,984.90
2023-02-13T11:17:47.325Z,984.91
2023-02-13T11:18:47.272Z,984.90
2023-02-13T11:19:47.274Z,984.87
2023-02-13T11:20:47.283Z,984.83
2023-02-13T11:21:47.237Z,984.77
2023-02-13T11:22:47.276Z,984.80
2023-02-13T11:23:47.233Z,984.83
2023-02-13T11:24:47.203Z,984.77
2023-02-13T11:25:47.196Z,984.83
2023-02-13T11:26:47.239Z,984.78
2023-02-13T11:27:47.168Z,984.74
2023-02-13T11:28:47.303Z,984.80
2023-02-13T11:29:47.170Z,984.84
2023-02-13T11:30:47.234Z,984.81
2023-02-13T11:31:47.249Z,984.77
2023-02-13T11:32:47.200Z,984.78
2023-02-13T11:33:47.116Z,984.75
2023-02-13T11:34:47.104Z,984.77
2023-02-13T11:35:47.076Z,984.78
2023-02-13T11:36:47.082Z,984.78
2023-02-13T11:37:47.054Z,984.77
2023-02-13T11:38:47.123Z,984.78
2023-02-13T11:39:47.033Z,984.77
2023-02-13T11:40:47.104Z,984.75
2023-02-13T11:41:47.021Z,984.81
2023-02-13T11:42:47.007Z,984.77
2023-02-13T11:43:46.991Z,984.83
2023-02-13T11:44:47.044Z,984.81
2023-02-13T11:45:46.970Z,984.84
2023-02-13T11:46:47.043Z,984.74
2023-02-13T11:47:46.953Z,984.78
2023-02-13T11:48:46.946Z,984.87
2023-02-13T11:49:46.922Z,984.88
2023-02-13T11:50:46.966Z,984.88
2023-02-13T11:51:46.940Z,984.79
2023-02-13T11:52:46.925Z,984.82
2023-02-13T11:53:46.899Z,984.78
2023-02-13T11:54:46.907Z,984.79
2023-02-13T11:55:46.855Z,984.80
2023-02-13T11:57:03.082Z,984.83
2023-02-13T11:57:47.872Z,984.84
2023-02-13T11:58:46.894Z,984.78
2023-02-13T11:59:46.820Z,984.83
2023-02-13T12:00:46.838Z,984.79
2023-02-13T12:01:46.792Z,984.74
2023-02-13T12:02:46.969Z,984.72
2023-02-13T12:03:46.837Z,984.75
2023-02-13T12:04:46.800Z,984.78
2023-02-13T12:05:46.771Z,984.77
2023-02-13T12:06:46.741Z,984.77
2023-02-13T12:07:46.727Z,984.81
2023-02-13T12:08:46.726Z,984.74
2023-02-13T12:09:46.759Z,984.69
2023-02-13T12:10:46.726Z,984.75
2023-02-13T12:11:46.712Z,984.73
2023-02-13T12:12:46.712Z,984.80
2023-02-13T12:13:46.659Z,984.77
2023-02-13T12:14:47.082Z,984.75
2023-02-13T12:15:46.653Z,984.77
2023-02-13T12:16:46.694Z,984.73
2023-02-13T12:17:46.621Z,984.75
2023-02-13T12:18:46.649Z,984.76
2023-02-13T12:19:46.599Z,984.78
2023-02-13T12:20:46.606Z,984.76
2023-02-13T12:21:46.619Z,984.76
2023-02-13T12:22:46.573Z,984.77
2023-02-13T12:23:46.589Z,984.75
2023-02-13T12:24:46.542Z,984.68
2023-02-13T12:25:46.547Z,984.75
2023-02-13T12:26:46.554Z,984.68
2023-02-13T12:27:46.554Z,984.71
2023-02-13T12:28:46.509Z,984.65